createdAt,value
2023-01-06T00:00:22.652Z,11.50
2023-01-06T00:03:11.217Z,11.50
2023-01-06T00:05:59.183Z,11.50
2023-01-06T00:08:45.781Z,11.50
2023-01-06T00:11:33.307Z,11.60
2023-01-06T00:14:19.894Z,11.70
2023-01-06T00:17:06.764Z,11.70
2023-01-06T00:19:55.041Z,11.70
2023-01-06T00:22:41.953Z,11.70
2023-01-06T00:25:28.484Z,11.60
2023-01-06T00:28:14.855Z,11.50
2023-01-06T00:31:05.775Z,11.40
2023-01-06T00:33:52.336Z,11.40
2023-01-06T00:36:40.169Z,11.40
2023-01-06T00:39:28.746Z,11.50
2023-01-06T00:42:15.585Z,11.60
2023-01-06T00:45:02.988Z,11.60
2023-01-06T00:47:49.427Z,11.60
2023-01-06T00:50:36.464Z,11.50
2023-01-06T00:53:24.475Z,11.50
2023-01-06T00:56:11.009Z,11.50
2023-01-06T00:58:58.028Z,11.50
2023-01-06T01:01:45.887Z,11.50
2023-01-06T01:04:33.314Z,11.50
2023-01-06T01:07:19.703Z,11.60
2023-01-06T01:10:08.665Z,11.60
2023-01-06T01:12:55.426Z,11.60
2023-01-06T01:15:43.664Z,11.60
2023-01-06T01:18:30.279Z,11.60
2023-01-06T01:21:17.039Z,11.70
2023-01-06T01:24:03.732Z,11.80
2023-01-06T01:26:52.151Z,11.70
2023-01-06T01:29:38.657Z,11.80
2023-01-06T01:32:25.147Z,11.70
2023-01-06T01:35:11.633Z,11.70
2023-01-06T01:37:59.046Z,11.60
2023-01-06T01:40:48.677Z,11.50
2023-01-06T01:43:47.754Z,11.40
2023-01-06T01:46:37.367Z,11.50
2023-01-06T01:49:27.753Z,11.40
2023-01-06T01:52:16.280Z,11.40
2023-01-06T01:55:04.594Z,11.40
2023-01-06T01:57:55.625Z,11.50
2023-01-06T02:00:45.230Z,11.50
2023-01-06T02:03:31.586Z,11.60
2023-01-06T02:06:22.069Z,11.60
2023-01-06T02:09:14.565Z,11.60
2023-01-06T02:12:01.017Z,11.60
2023-01-06T02:14:47.528Z,11.60
2023-01-06T02:18:07.844Z,11.60
2023-01-06T02:21:21.811Z,11.70
2023-01-06T02:24:44.844Z,11.70
2023-01-06T02:27:48.612Z,11.70
2023-01-06T02:30:52.266Z,11.70
2023-01-06T02:33:47.236Z,11.80
2023-01-06T02:36:44.967Z,11.70
2023-01-06T02:39:44.160Z,11.70
2023-01-06T02:42:41.330Z,11.70
2023-01-06T02:45:35.307Z,11.80
2023-01-06T02:48:28.191Z,11.80
2023-01-06T02:51:23.666Z,11.70
2023-01-06T02:54:19.367Z,11.70
2023-01-06T02:57:13.383Z,11.70
2023-01-06T03:00:09.614Z,11.60
2023-01-06T03:02:59.184Z,11.50
2023-01-06T03:05:52.273Z,11.40
2023-01-06T03:08:40.943Z,11.40
2023-01-06T03:11:32.309Z,11.30
2023-01-06T03:14:24.424Z,11.30
2023-01-06T03:17:11.163Z,11.30
2023-01-06T03:19:58.018Z,11.40
2023-01-06T03:22:45.105Z,11.40
2023-01-06T03:25:32.995Z,11.30
2023-01-06T03:28:20.023Z,11.40
2023-01-06T03:31:14.941Z,11.50
2023-01-06T03:34:10.916Z,11.40
2023-01-06T03:37:03.038Z,11.50
2023-01-06T03:39:58.987Z,11.50
2023-01-06T03:43:13.508Z,11.50
2023-01-06T03:46:21.747Z,11.50
2023-01-06T03:49:11.153Z,11.40
2023-01-06T03:52:04.994Z,11.40
2023-01-06T03:54:57.720Z,11.40
2023-01-06T03:57:48.915Z,11.30
2023-01-06T04:00:37.959Z,11.30
2023-01-06T04:03:27.062Z,11.30
2023-01-06T04:06:14.745Z,11.40
2023-01-06T04:09:03.182Z,11.30
2023-01-06T04:12:10.224Z,11.30
2023-01-06T04:15:00.124Z,11.30
2023-01-06T04:17:47.624Z,11.30
2023-01-06T04:20:36.055Z,11.40
2023-01-06T04:23:36.616Z,11.40
2023-01-06T04:26:26.518Z,11.40
2023-01-06T04:29:13.988Z,11.30
2023-01-06T04:32:02.150Z,11.30
2023-01-06T04:34:49.171Z,11.30
2023-01-06T04:37:36.279Z,11.30
2023-01-06T04:40:22.906Z,11.30
2023-01-06T04:43:14.060Z,11.30
2023-01-06T04:46:00.814Z,11.30
2023-01-06T04:48:48.874Z,11.30
2023-01-06T04:51:35.565Z,11.30
2023-01-06T04:54:22.483Z,11.30
2023-01-06T04:57:09.320Z,11.30
2023-01-06T04:59:55.936Z,11.30
2023-01-06T05:02:42.363Z,11.30
2023-01-06T05:05:30.277Z,11.30
2023-01-06T05:08:16.574Z,11.20
2023-01-06T05:11:03.797Z,11.20
2023-01-06T05:13:50.603Z,11.20
2023-01-06T05:16:38.179Z,11.20
2023-01-06T05:19:24.899Z,11.30
2023-01-06T05:22:13.295Z,11.30
2023-01-06T05:24:59.913Z,11.30
2023-01-06T05:27:46.552Z,11.30
2023-01-06T05:30:33.457Z,11.20
2023-01-06T05:33:19.829Z,11.20
2023-01-06T05:36:08.570Z,11.10
2023-01-06T05:38:56.482Z,11.20
2023-01-06T05:41:43.409Z,11.10
2023-01-06T05:44:30.180Z,11.10
2023-01-06T05:47:16.652Z,11.10
2023-01-06T05:50:03.258Z,11.10
2023-01-06T05:52:49.612Z,11.00
2023-01-06T05:55:37.384Z,11.00
2023-01-06T05:58:24.106Z,11.00
2023-01-06T06:01:17.418Z,11.00
2023-01-06T06:04:04.456Z,11.00
2023-01-06T06:06:51.238Z,10.90
2023-01-06T06:09:37.817Z,11.00
2023-01-06T06:12:25.366Z,11.00
2023-01-06T06:15:12.115Z,11.00
2023-01-06T06:17:58.555Z,11.00
2023-01-06T06:20:44.865Z,11.10
2023-01-06T06:23:31.586Z,11.00
2023-01-06T06:26:18.264Z,11.10
2023-01-06T06:29:08.275Z,11.10
2023-01-06T06:31:54.688Z,11.00
2023-01-06T06:34:40.881Z,11.00
2023-01-06T06:37:27.360Z,11.00
2023-01-06T06:40:13.974Z,11.00
2023-01-06T06:43:00.669Z,10.90
2023-01-06T06:45:48.972Z,10.90
2023-01-06T06:48:35.631Z,10.90
2023-01-06T06:51:23.334Z,10.90
2023-01-06T06:54:09.731Z,10.90
2023-01-06T06:56:56.985Z,10.90
2023-01-06T06:59:43.328Z,10.80
2023-01-06T07:02:31.397Z,10.80
2023-01-06T07:05:18.040Z,10.70
2023-01-06T07:08:04.877Z,10.70
2023-01-06T07:10:51.650Z,10.70
2023-01-06T07:13:38.063Z,10.70
2023-01-06T07:16:26.621Z,10.70
2023-01-06T07:19:14.937Z,10.70
2023-01-06T07:22:01.470Z,10.60
2023-01-06T07:24:47.898Z,10.60
2023-01-06T07:27:34.621Z,10.60
2023-01-06T07:30:21.057Z,10.60
2023-01-06T07:33:07.328Z,10.60
2023-01-06T07:35:56.002Z,10.60
2023-01-06T07:38:42.359Z,10.60
2023-01-06T07:41:28.756Z,10.70
2023-01-06T07:44:19.784Z,10.70
2023-01-06T07:47:06.556Z,10.70
2023-01-06T07:49:53.307Z,10.70
2023-01-06T07:52:41.067Z,10.70
2023-01-06T07:55:27.640Z,10.70
2023-01-06T07:58:14.071Z,10.70
2023-01-06T08:01:06.817Z,10.60
2023-01-06T08:03:53.269Z,10.60
2023-01-06T08:06:40.799Z,10.70
2023-01-06T08:09:28.696Z,10.80
2023-01-06T08:12:15.317Z,10.80
2023-01-06T08:15:01.727Z,10.80
2023-01-06T08:17:48.656Z,10.80
2023-01-06T08:20:35.262Z,10.80
2023-01-06T08:23:21.881Z,10.80
2023-01-06T08:26:13.425Z,10.90
2023-01-06T08:29:00.141Z,10.90
2023-01-06T08:31:47.093Z,11.00
2023-01-06T08:34:33.341Z,11.10
2023-01-06T08:37:19.822Z,11.20
2023-01-06T08:40:07.921Z,11.30
2023-01-06T08:42:56.038Z,11.30
2023-01-06T08:45:42.646Z,11.40
2023-01-06T08:48:29.180Z,11.40
2023-01-06T08:51:17.825Z,11.50
2023-01-06T08:54:04.391Z,11.50
2023-01-06T08:56:50.728Z,11.50
2023-01-06T08:59:38.376Z,11.50
2023-01-06T09:02:27.227Z,11.50
2023-01-06T09:05:14.000Z,11.70
2023-01-06T09:08:01.143Z,11.90
2023-01-06T09:10:47.800Z,11.80
2023-01-06T09:13:34.498Z,11.90
2023-01-06T09:16:22.917Z,11.80
2023-01-06T09:19:10.387Z,11.90
2023-01-06T09:21:56.862Z,12.00
2023-01-06T09:24:43.737Z,11.80
2023-01-06T09:27:30.110Z,11.90
2023-01-06T09:30:17.109Z,12.00
2023-01-06T09:33:05.428Z,12.00
2023-01-06T09:35:52.087Z,12.00
2023-01-06T09:38:38.328Z,11.90
2023-01-06T09:41:54.407Z,11.90
2023-01-06T09:44:48.973Z,11.90
2023-01-06T09:47:41.673Z,11.90
2023-01-06T09:50:35.938Z,11.90
2023-01-06T09:53:26.746Z,11.80
2023-01-06T09:56:18.839Z,11.70
2023-01-06T09:59:09.579Z,11.80
2023-01-06T10:01:59.648Z,11.70
2023-01-06T10:04:46.533Z,11.80
2023-01-06T10:07:43.375Z,11.90
2023-01-06T10:10:39.459Z,11.90
2023-01-06T10:13:42.618Z,11.90
2023-01-06T10:16:47.386Z,12.00
2023-01-06T10:19:49.808Z,12.00
2023-01-06T10:22:46.993Z,12.00
2023-01-06T10:25:35.462Z,12.00
2023-01-06T10:28:37.668Z,12.20
2023-01-06T10:31:29.474Z,12.20
2023-01-06T10:34:22.453Z,12.30
2023-01-06T10:37:15.733Z,12.30
2023-01-06T10:40:16.069Z,12.20
2023-01-06T10:43:06.505Z,12.20
2023-01-06T10:45:54.395Z,12.10
2023-01-06T10:48:41.259Z,12.00
2023-01-06T10:51:36.162Z,11.90
2023-01-06T10:54:27.603Z,11.80
2023-01-06T10:57:22.094Z,11.80
2023-01-06T11:00:13.111Z,11.90
2023-01-06T11:03:19.671Z,12.10
2023-01-06T11:06:28.174Z,12.20
2023-01-06T11:09:29.610Z,12.30
2023-01-06T11:12:20.757Z,12.20
2023-01-06T11:15:09.295Z,12.30
2023-01-06T11:17:55.721Z,12.40
2023-01-06T11:20:42.600Z,12.60
2023-01-06T11:23:29.702Z,12.80
2023-01-06T11:26:19.811Z,12.90
2023-01-06T11:29:19.622Z,13.00
2023-01-06T11:32:14.639Z,13.00
2023-01-06T11:35:05.172Z,13.10
2023-01-06T11:37:58.453Z,13.00
2023-01-06T11:40:47.591Z,13.00
2023-01-06T11:43:33.957Z,12.90
2023-01-06T11:46:23.585Z,12.80
2023-01-06T11:49:17.038Z,12.60
2023-01-06T11:52:05.208Z,12.50
2023-01-06T11:55:00.880Z,12.50
2023-01-06T11:57:56.010Z,12.80
2023-01-06T12:00:49.538Z,13.00
2023-01-06T12:03:42.447Z,12.90
2023-01-06T12:06:34.592Z,13.00
2023-01-06T12:09:26.719Z,12.90
2023-01-06T12:12:21.722Z,12.70
2023-01-06T12:15:13.712Z,12.70
2023-01-06T12:18:05.227Z,12.60
2023-01-06T12:20:53.647Z,12.70
2023-01-06T12:23:42.208Z,12.90
2023-01-06T12:26:31.329Z,12.90
2023-01-06T12:29:21.579Z,12.90
2023-01-06T12:32:13.933Z,13.00
2023-01-06T12:35:04.354Z,13.00
2023-01-06T12:37:57.233Z,12.80
2023-01-06T12:40:49.999Z,12.60
2023-01-06T12:43:41.700Z,12.60
2023-01-06T12:46:35.627Z,12.50
2023-01-06T12:49:26.343Z,12.50
2023-01-06T12:52:19.048Z,12.40
2023-01-06T12:55:10.671Z,12.40
2023-01-06T12:58:04.579Z,12.40
2023-01-06T13:00:54.637Z,12.40
2023-01-06T13:04:07.339Z,12.40
2023-01-06T13:07:10.609Z,12.50
2023-01-06T13:10:07.473Z,12.60
2023-01-06T13:13:24.256Z,12.50
2023-01-06T13:16:18.923Z,12.40
2023-01-06T13:19:17.166Z,12.30
2023-01-06T13:22:07.089Z,12.20
2023-01-06T13:25:13.680Z,12.20
2023-01-06T13:28:11.042Z,12.10
2023-01-06T13:31:32.975Z,12.20
2023-01-06T13:34:52.535Z,12.20
2023-01-06T13:37:42.446Z,12.10
2023-01-06T13:40:31.602Z,12.10
2023-01-06T13:43:25.327Z,12.10
2023-01-06T13:46:16.426Z,12.10
2023-01-06T13:49:06.356Z,12.10
2023-01-06T13:51:54.767Z,12.10
2023-01-06T13:55:07.836Z,12.20
2023-01-06T13:57:54.243Z,12.40
2023-01-06T14:00:45.152Z,12.20
2023-01-06T14:03:31.923Z,12.20
2023-01-06T14:06:45.947Z,12.20
2023-01-06T14:09:40.538Z,12.20
2023-01-06T14:12:26.720Z,12.30
2023-01-06T14:15:24.379Z,12.20
2023-01-06T14:18:31.782Z,12.20
2023-01-06T14:21:29.034Z,12.10
2023-01-06T14:24:27.859Z,12.10
2023-01-06T14:27:14.450Z,12.00
2023-01-06T14:30:19.620Z,12.00
2023-01-06T14:33:26.870Z,12.00
2023-01-06T14:36:15.694Z,12.00
2023-01-06T14:39:05.325Z,11.90
2023-01-06T14:42:01.984Z,12.00
2023-01-06T14:44:51.563Z,12.00
2023-01-06T14:47:42.764Z,11.90
2023-01-06T14:50:46.134Z,11.80
2023-01-06T14:53:36.950Z,11.80
2023-01-06T14:56:26.525Z,11.90
2023-01-06T14:59:15.421Z,11.90
2023-01-06T15:02:04.335Z,11.90
2023-01-06T15:04:57.652Z,11.90
2023-01-06T15:08:01.876Z,11.90
2023-01-06T15:10:49.811Z,11.90
2023-01-06T15:13:36.926Z,11.90
2023-01-06T15:16:32.601Z,11.80
2023-01-06T15:19:19.252Z,11.80
2023-01-06T15:22:09.301Z,11.80
2023-01-06T15:24:57.416Z,11.80
2023-01-06T15:27:48.374Z,11.90
2023-01-06T15:30:36.680Z,11.90
2023-01-06T15:33:25.756Z,11.80
2023-01-06T15:36:21.158Z,11.80
2023-01-06T15:39:11.169Z,11.70
2023-01-06T15:42:00.313Z,11.70
2023-01-06T15:44:56.564Z,11.80
2023-01-06T15:47:48.817Z,11.80
2023-01-06T15:50:35.979Z,11.70
2023-01-06T15:53:25.607Z,11.60
2023-01-06T15:56:21.397Z,11.70
2023-01-06T15:59:15.542Z,11.60
2023-01-06T16:02:03.811Z,11.70
2023-01-06T16:04:51.175Z,11.80
2023-01-06T16:07:40.625Z,11.80
2023-01-06T16:10:32.393Z,11.70
2023-01-06T16:13:27.584Z,11.70
2023-01-06T16:16:28.700Z,11.70
2023-01-06T16:19:18.786Z,11.60
2023-01-06T16:22:09.036Z,11.60
2023-01-06T16:24:55.880Z,11.70
2023-01-06T16:27:47.080Z,11.70
2023-01-06T16:30:36.450Z,11.70
2023-01-06T16:33:38.786Z,11.80
2023-01-06T16:36:26.182Z,11.60
2023-01-06T16:39:12.540Z,11.50
2023-01-06T16:42:39.455Z,11.40
2023-01-06T16:45:29.780Z,11.20
2023-01-06T16:48:17.375Z,11.00
2023-01-06T16:51:12.984Z,10.80
2023-01-06T16:53:59.311Z,10.70
2023-01-06T16:56:46.392Z,10.60
2023-01-06T16:59:36.950Z,10.50
2023-01-06T17:02:23.292Z,10.50
2023-01-06T17:05:19.684Z,10.50
2023-01-06T17:08:12.703Z,10.60
2023-01-06T17:11:02.343Z,10.70
2023-01-06T17:13:53.555Z,10.70
2023-01-06T17:16:42.373Z,10.60
2023-01-06T17:19:32.400Z,10.70
2023-01-06T17:22:25.511Z,10.70
2023-01-06T17:25:15.856Z,10.60
2023-01-06T17:28:18.548Z,10.70
2023-01-06T17:31:11.285Z,10.60
2023-01-06T17:33:59.854Z,10.50
2023-01-06T17:36:49.174Z,10.60
2023-01-06T17:39:39.405Z,10.70
2023-01-06T17:42:32.467Z,10.70
2023-01-06T17:45:24.484Z,10.80
2023-01-06T17:48:12.782Z,10.80
2023-01-06T17:50:59.561Z,10.80
2023-01-06T17:54:03.441Z,10.80
2023-01-06T17:56:50.390Z,10.90
2023-01-06T17:59:40.953Z,10.80
2023-01-06T18:02:47.877Z,10.90
2023-01-06T18:05:55.687Z,10.90
2023-01-06T18:08:42.472Z,10.90
2023-01-06T18:11:35.141Z,10.90
2023-01-06T18:14:25.159Z,10.90
2023-01-06T18:17:24.501Z,10.90
2023-01-06T18:20:11.257Z,10.90
2023-01-06T18:22:58.218Z,10.80
2023-01-06T18:25:44.959Z,10.70
2023-01-06T18:28:31.803Z,10.70
2023-01-06T18:31:22.817Z,10.70
2023-01-06T18:34:24.995Z,10.70
2023-01-06T18:37:11.364Z,10.60
2023-01-06T18:39:59.972Z,10.70
2023-01-06T18:42:50.850Z,10.70
2023-01-06T18:45:39.140Z,10.60
2023-01-06T18:48:30.279Z,10.70
2023-01-06T18:51:22.206Z,10.70
2023-01-06T18:54:16.075Z,10.70
2023-01-06T18:57:02.356Z,10.80
2023-01-06T18:59:49.004Z,10.80
2023-01-06T19:02:40.340Z,10.80
2023-01-06T19:05:27.136Z,10.80
2023-01-06T19:08:19.046Z,10.80
2023-01-06T19:11:16.523Z,10.80
2023-01-06T19:14:07.165Z,10.80
2023-01-06T19:16:55.105Z,10.80
2023-01-06T19:19:43.426Z,10.90
2023-01-06T19:22:34.129Z,10.90
2023-01-06T19:25:31.270Z,11.00
2023-01-06T19:28:19.927Z,11.00
2023-01-06T19:31:08.487Z,10.90
2023-01-06T19:33:58.609Z,10.90
2023-01-06T19:36:46.972Z,11.00
2023-01-06T19:39:37.660Z,11.00
2023-01-06T19:42:29.883Z,10.90
2023-01-06T19:45:28.923Z,11.00
2023-01-06T19:48:22.343Z,11.00
2023-01-06T19:51:23.998Z,11.10
2023-01-06T19:54:23.504Z,11.10
2023-01-06T19:57:24.399Z,11.10
2023-01-06T20:00:24.248Z,11.00
2023-01-06T20:03:26.793Z,11.00
2023-01-06T20:06:14.616Z,11.10
2023-01-06T20:09:00.975Z,11.20
2023-01-06T20:11:47.746Z,11.00
2023-01-06T20:14:34.489Z,11.20
2023-01-06T20:17:22.311Z,11.30
2023-01-06T20:20:09.824Z,11.30
2023-01-06T20:22:56.631Z,11.30
2023-01-06T20:25:43.136Z,11.30
2023-01-06T20:28:29.776Z,11.30
2023-01-06T20:31:17.061Z,11.20
2023-01-06T20:34:05.061Z,11.20
2023-01-06T20:36:51.918Z,11.30
2023-01-06T20:39:38.440Z,11.30
2023-01-06T20:42:25.176Z,11.20
2023-01-06T20:45:12.500Z,11.10
2023-01-06T20:47:59.099Z,11.20
2023-01-06T20:50:46.874Z,11.10
2023-01-06T20:53:33.446Z,11.10
2023-01-06T20:56:20.574Z,11.00
2023-01-06T20:59:07.415Z,11.10
2023-01-06T21:01:54.050Z,11.00
2023-01-06T21:04:40.981Z,11.10
2023-01-06T21:07:28.652Z,11.00
2023-01-06T21:10:15.871Z,11.00
2023-01-06T21:13:02.355Z,10.80
2023-01-06T21:15:49.032Z,10.70
2023-01-06T21:18:35.561Z,10.70
2023-01-06T21:21:21.979Z,10.60
2023-01-06T21:24:10.390Z,10.50
2023-01-06T21:26:56.765Z,10.40
2023-01-06T21:29:43.176Z,10.40
2023-01-06T21:32:29.629Z,10.40
2023-01-06T21:35:16.837Z,10.40
2023-01-06T21:38:05.220Z,10.40
2023-01-06T21:40:53.872Z,10.40
2023-01-06T21:43:39.557Z,10.40
2023-01-06T21:46:26.386Z,10.50
2023-01-06T21:49:13.135Z,10.60
2023-01-06T21:52:01.632Z,10.50
2023-01-06T21:54:48.018Z,10.40
2023-01-06T21:57:36.079Z,10.40
2023-01-06T22:00:22.931Z,10.20
2023-01-06T22:03:09.361Z,10.20
2023-01-06T22:05:57.250Z,10.20
2023-01-06T22:08:43.883Z,10.20
2023-01-06T22:11:30.589Z,10.20
2023-01-06T22:14:18.801Z,10.20
2023-01-06T22:17:05.718Z,10.20
2023-01-06T22:19:54.413Z,10.20
2023-01-06T22:22:42.814Z,10.20
2023-01-06T22:25:29.933Z,10.20
2023-01-06T22:28:16.588Z,10.20
2023-01-06T22:31:04.841Z,10.30
2023-01-06T22:33:51.390Z,10.30
2023-01-06T22:36:37.881Z,10.30
2023-01-06T22:39:24.768Z,10.30
2023-01-06T22:42:11.542Z,10.30
2023-01-06T22:44:58.184Z,10.30
2023-01-06T22:47:46.224Z,10.20
2023-01-06T22:50:33.041Z,10.20
2023-01-06T22:53:19.348Z,10.30
2023-01-06T22:56:07.926Z,10.30
2023-01-06T22:58:54.290Z,10.30
2023-01-06T23:01:40.642Z,10.30
2023-01-06T23:04:28.819Z,10.20
2023-01-06T23:07:15.272Z,10.30
2023-01-06T23:10:02.146Z,10.20
2023-01-06T23:12:48.579Z,10.30
2023-01-06T23:15:34.941Z,10.30
2023-01-06T23:18:21.812Z,10.20
2023-01-06T23:21:11.351Z,10.20
2023-01-06T23:23:58.276Z,10.30
2023-01-06T23:26:46.929Z,10.40
2023-01-06T23:29:33.689Z,10.30
2023-01-06T23:32:20.458Z,10.40
2023-01-06T23:35:07.415Z,10.40
2023-01-06T23:37:55.332Z,10.50
2023-01-06T23:40:42.157Z,10.50
2023-01-06T23:43:29.140Z,10.50
2023-01-06T23:46:17.622Z,10.40
2023-01-06T23:49:05.045Z,10.50
2023-01-06T23:51:51.563Z,10.50
2023-01-06T23:54:39.300Z,10.50
2023-01-06T23:57:25.631Z,10.50
